createdAt,value
2019-03-21T00:00:01.250Z,0.9
2019-03-21T00:10:01.272Z,0.9
2019-03-21T00:15:01.457Z,1.0
2019-03-21T00:20:01.271Z,1.0
2019-03-21T00:30:06.271Z,1.0
2019-03-21T00:40:01.366Z,1.0
2019-03-21T00:45:01.300Z,1.0
2019-03-21T00:55:01.322Z,1.0
2019-03-21T01:00:01.232Z,1.1
2019-03-21T01:05:01.273Z,1.0
2019-03-21T01:15:01.277Z,1.0
2019-03-21T01:30:01.216Z,1.1
2019-03-21T01:45:01.332Z,1.1
2019-03-21T02:00:01.462Z,1.1
2019-03-21T02:10:01.379Z,1.1
2019-03-21T02:15:01.302Z,1.1
2019-03-21T02:25:01.289Z,1.0
2019-03-21T02:30:01.210Z,1.1
2019-03-21T02:45:10.126Z,1.0
2019-03-21T03:00:01.529Z,1.0
2019-03-21T03:05:01.410Z,1.0
2019-03-21T03:10:01.237Z,1.0
2019-03-21T03:15:01.296Z,1.0
2019-03-21T03:30:01.235Z,0.9
2019-03-21T03:35:01.679Z,0.9
2019-03-21T03:40:01.181Z,0.8
2019-03-21T03:45:01.238Z,0.8
2019-03-21T03:50:01.262Z,0.8
2019-03-21T04:00:01.364Z,0.8
2019-03-21T04:10:01.312Z,0.8
2019-03-21T04:15:01.296Z,0.8
2019-03-21T04:20:02.348Z,0.7
2019-03-21T04:30:01.298Z,0.8
2019-03-21T04:45:01.237Z,0.7
2019-03-21T04:55:01.406Z,0.7
2019-03-21T05:00:04.215Z,0.7
2019-03-21T05:05:01.414Z,0.6
2019-03-21T05:15:01.387Z,0.6
2019-03-21T05:30:01.608Z,0.6
2019-03-21T05:35:01.403Z,0.6
2019-03-21T05:45:01.357Z,0.6
2019-03-21T05:50:01.306Z,0.6
2019-03-21T06:00:01.368Z,0.6
2019-03-21T06:05:01.434Z,0.5
2019-03-21T06:15:01.371Z,0.5
2019-03-21T06:20:04.581Z,0.6
2019-03-21T06:35:01.553Z,0.6
2019-03-21T06:45:01.385Z,0.6
2019-03-21T06:55:01.346Z,0.6
2019-03-21T07:00:01.452Z,0.5
2019-03-21T07:05:01.468Z,0.5
2019-03-21T07:15:04.248Z,0.5
2019-03-21T07:25:01.394Z,0.4
2019-03-21T07:30:01.355Z,0.4
2019-03-21T07:45:01.439Z,0.4
2019-03-21T07:50:02.547Z,0.5
2019-03-21T07:55:01.487Z,0.5
2019-03-21T08:00:01.394Z,0.5
2019-03-21T08:05:01.604Z,0.6
2019-03-21T08:10:01.414Z,0.6
2019-03-21T08:15:01.416Z,0.7
2019-03-21T08:25:02.196Z,0.7
2019-03-21T08:30:01.356Z,0.8
2019-03-21T08:35:06.415Z,0.8
2019-03-21T08:40:01.339Z,0.9
2019-03-21T08:45:01.473Z,0.9
2019-03-21T08:50:01.343Z,1.0
2019-03-21T09:00:01.339Z,1.0
2019-03-21T09:15:01.547Z,1.0
2019-03-21T09:25:01.441Z,1.0
2019-03-21T09:30:01.367Z,1.0
2019-03-21T09:40:01.536Z,1.0
2019-03-21T09:45:06.502Z,1.0
2019-03-21T09:50:01.366Z,1.0
2019-03-21T09:55:01.454Z,1.0
2019-03-21T10:00:01.389Z,1.0
2019-03-21T10:10:01.447Z,1.0
2019-03-21T10:15:01.537Z,1.0
2019-03-21T10:25:01.996Z,1.0
2019-03-21T10:30:06.406Z,0.9
2019-03-21T10:45:01.380Z,1.0
2019-03-21T10:50:01.439Z,1.0
2019-03-21T10:55:01.452Z,1.0
2019-03-21T11:00:02.717Z,1.0
2019-03-21T11:15:01.520Z,1.0
2019-03-21T11:20:01.379Z,1.0
2019-03-21T11:30:01.505Z,1.0
2019-03-21T11:45:01.525Z,1.0
2019-03-21T11:50:01.435Z,1.0
2019-03-21T12:00:01.568Z,1.0
2019-03-21T12:05:01.455Z,1.0
2019-03-21T12:15:01.494Z,1.0
2019-03-21T12:30:01.481Z,1.0
2019-03-21T12:45:01.557Z,1.0
2019-03-21T13:00:01.565Z,1.0
2019-03-21T13:05:01.460Z,1.0
2019-03-21T13:15:01.569Z,1.0
2019-03-21T13:30:04.111Z,1.0
2019-03-21T13:40:01.565Z,1.1
2019-03-21T13:45:01.482Z,1.1
2019-03-21T13:55:01.568Z,1.1
2019-03-21T14:00:01.573Z,1.1
2019-03-21T14:05:01.588Z,1.1
2019-03-21T14:15:01.610Z,1.1
2019-03-21T14:30:02.734Z,1.1
2019-03-21T14:35:01.539Z,1.1
2019-03-21T14:45:01.574Z,1.1
2019-03-21T14:55:01.607Z,1.1
2019-03-21T15:00:01.443Z,1.1
2019-03-21T15:05:01.426Z,1.1
2019-03-21T15:15:01.640Z,1.1
2019-03-21T15:30:01.760Z,1.1
2019-03-21T15:55:01.512Z,1.1
2019-03-21T16:00:01.436Z,1.1
2019-03-21T16:10:01.515Z,1.1
2019-03-21T16:15:01.557Z,1.1
2019-03-21T16:20:01.417Z,1.1
2019-03-21T16:30:01.558Z,1.0
2019-03-21T16:35:01.495Z,1.0
2019-03-21T16:45:01.635Z,1.0
2019-03-21T17:00:06.705Z,1.1
2019-03-21T17:10:01.698Z,1.1
2019-03-21T17:15:01.503Z,1.1
2019-03-21T17:25:06.556Z,1.1
2019-03-21T17:30:01.590Z,1.1
2019-03-21T17:40:01.601Z,1.0
2019-03-21T17:45:01.540Z,1.0
2019-03-21T18:01:01.460Z,1.0
2019-03-21T18:06:01.556Z,1.0
2019-03-21T18:16:01.543Z,1.0
2019-03-21T18:26:01.492Z,1.0
2019-03-21T18:41:02.588Z,1.1
2019-03-21T18:46:01.533Z,1.0
2019-03-21T19:01:01.504Z,1.0
2019-03-21T19:06:01.606Z,1.0
2019-03-21T19:11:01.408Z,1.0
2019-03-21T19:26:01.606Z,0.9
2019-03-21T19:41:01.581Z,1.0
2019-03-21T19:46:01.539Z,1.0
2019-03-21T19:51:01.468Z,1.0
2019-03-21T19:56:09.174Z,1.0
2019-03-21T20:01:01.437Z,0.9
2019-03-21T20:16:01.554Z,1.0
2019-03-21T20:26:01.531Z,1.0
2019-03-21T20:36:02.083Z,1.0
2019-03-21T20:51:01.511Z,1.0
2019-03-21T21:06:02.154Z,1.0
2019-03-21T21:16:01.676Z,0.9
2019-03-21T21:21:01.408Z,0.9
2019-03-21T21:26:06.208Z,0.9
2019-03-21T21:31:01.448Z,0.8
2019-03-21T21:36:01.508Z,0.8
2019-03-21T21:41:01.442Z,0.7
2019-03-21T21:46:01.491Z,0.7
2019-03-21T21:51:01.555Z,0.6
2019-03-21T22:06:01.566Z,0.7
2019-03-21T22:16:01.501Z,0.6
2019-03-21T22:21:01.435Z,0.6
2019-03-21T22:31:01.531Z,0.5
2019-03-21T22:41:01.498Z,0.5
2019-03-21T22:56:01.516Z,0.5
2019-03-21T23:06:01.598Z,0.5
2019-03-21T23:21:01.598Z,0.5
2019-03-21T23:36:01.583Z,0.5
2019-03-21T23:41:01.418Z,0.5
2019-03-21T23:51:01.500Z,0.4
